createdAt,value
2022-12-15T00:00:48.693Z,12.18
2022-12-15T00:03:34.052Z,11.47
2022-12-15T00:06:19.399Z,12.45
2022-12-15T00:09:04.280Z,10.68
2022-12-15T00:11:49.597Z,15.60
2022-12-15T00:14:34.343Z,9.07
2022-12-15T00:17:19.197Z,10.63
2022-12-15T00:20:04.333Z,12.45
2022-12-15T00:22:49.161Z,13.60
2022-12-15T00:25:34.640Z,10.70
2022-12-15T00:28:19.720Z,11.73
2022-12-15T00:31:05.236Z,14.47
2022-12-15T00:33:50.214Z,10.60
2022-12-15T00:36:34.940Z,15.55
2022-12-15T00:39:03.943Z,13.65
2022-12-15T00:41:30.699Z,12.07
2022-12-15T00:43:57.274Z,9.73
2022-12-15T00:46:42.213Z,9.73
2022-12-15T00:49:28.864Z,13.18
2022-12-15T00:52:14.068Z,11.85
2022-12-15T00:54:59.391Z,13.43
2022-12-15T00:57:44.590Z,16.17
2022-12-15T01:00:30.167Z,11.15
2022-12-15T01:03:15.504Z,12.95
2022-12-15T01:06:00.584Z,14.23
2022-12-15T01:08:46.895Z,8.98
2022-12-15T01:11:31.742Z,10.40
2022-12-15T01:14:17.014Z,13.35
2022-12-15T01:17:01.960Z,10.88
2022-12-15T01:19:46.948Z,18.15
2022-12-15T01:22:16.053Z,11.95
2022-12-15T01:24:42.591Z,9.87
2022-12-15T01:27:09.019Z,10.35
2022-12-15T01:29:35.579Z,14.40
2022-12-15T01:32:02.149Z,13.07
2022-12-15T01:34:28.594Z,9.45
2022-12-15T01:36:55.006Z,11.47
2022-12-15T01:39:21.426Z,11.48
2022-12-15T01:41:47.933Z,13.38
2022-12-15T01:44:23.748Z,13.57
2022-12-15T01:46:55.041Z,13.63
2022-12-15T01:49:26.444Z,12.50
2022-12-15T01:51:58.352Z,12.60
2022-12-15T01:54:30.552Z,13.82
2022-12-15T01:57:03.007Z,16.45
2022-12-15T01:59:43.785Z,11.57
2022-12-15T02:02:12.544Z,10.60
2022-12-15T02:04:39.358Z,13.25
2022-12-15T02:07:05.823Z,10.10
2022-12-15T02:09:32.575Z,11.65
2022-12-15T02:12:08.032Z,10.68
2022-12-15T02:14:53.006Z,12.87
2022-12-15T02:17:28.099Z,9.82
2022-12-15T02:20:20.477Z,12.45
2022-12-15T02:23:05.447Z,11.98
2022-12-15T02:25:44.307Z,13.55
2022-12-15T02:28:16.979Z,9.57
2022-12-15T02:31:09.796Z,11.30
2022-12-15T02:33:43.781Z,16.52
2022-12-15T02:36:17.264Z,14.32
2022-12-15T02:38:45.140Z,11.23
2022-12-15T02:41:35.498Z,8.33
2022-12-15T02:44:19.792Z,14.45
2022-12-15T02:46:54.718Z,10.63
2022-12-15T02:49:33.342Z,11.95
2022-12-15T02:52:36.273Z,13.00
2022-12-15T02:55:30.736Z,8.73
2022-12-15T02:58:18.920Z,11.75
2022-12-15T03:00:54.542Z,15.48
2022-12-15T03:03:22.715Z,11.48
2022-12-15T03:05:57.329Z,11.90
2022-12-15T03:08:24.006Z,8.47
2022-12-15T03:10:53.078Z,12.50
2022-12-15T03:13:19.475Z,9.50
2022-12-15T03:15:46.174Z,11.88
2022-12-15T03:18:12.971Z,11.57
2022-12-15T03:20:39.309Z,12.07
2022-12-15T03:23:05.657Z,12.95
2022-12-15T03:25:32.449Z,9.80
2022-12-15T03:27:59.024Z,15.50
2022-12-15T03:30:25.476Z,11.02
2022-12-15T03:32:51.918Z,10.07
2022-12-15T03:35:18.682Z,13.57
2022-12-15T03:37:45.113Z,12.35
2022-12-15T03:40:13.831Z,11.20
2022-12-15T03:42:49.450Z,11.13
2022-12-15T03:45:24.257Z,9.70
2022-12-15T03:47:51.455Z,10.68
2022-12-15T03:50:26.942Z,14.38
2022-12-15T03:52:56.148Z,12.68
2022-12-15T03:55:23.181Z,9.57
2022-12-15T03:57:49.883Z,13.07
2022-12-15T04:00:18.673Z,8.75
2022-12-15T04:02:46.727Z,12.90
2022-12-15T04:05:26.091Z,16.27
2022-12-15T04:07:53.858Z,11.18
2022-12-15T04:10:20.609Z,10.50
2022-12-15T04:12:47.196Z,11.25
2022-12-15T04:15:13.758Z,12.60
2022-12-15T04:17:41.637Z,18.77
2022-12-15T04:20:11.660Z,10.32
2022-12-15T04:22:43.712Z,13.40
2022-12-15T04:25:34.605Z,13.27
2022-12-15T04:28:19.622Z,9.43
2022-12-15T04:31:14.678Z,9.65
2022-12-15T04:34:03.538Z,9.52
2022-12-15T04:36:49.906Z,11.40
2022-12-15T04:39:35.274Z,9.65
2022-12-15T04:42:21.312Z,9.48
2022-12-15T04:45:08.487Z,10.00
2022-12-15T04:47:53.739Z,9.80
2022-12-15T04:50:38.805Z,10.10
2022-12-15T04:53:33.139Z,9.82
2022-12-15T04:56:19.060Z,8.65
2022-12-15T04:59:04.825Z,10.90
2022-12-15T05:01:50.154Z,14.55
2022-12-15T05:04:35.235Z,10.07
2022-12-15T05:07:20.347Z,9.60
2022-12-15T05:10:08.307Z,11.75
2022-12-15T05:12:57.685Z,9.68
2022-12-15T05:15:42.413Z,12.98
2022-12-15T05:18:27.361Z,8.80
2022-12-15T05:21:12.173Z,12.73
2022-12-15T05:23:56.847Z,9.77
2022-12-15T05:26:41.734Z,12.02
2022-12-15T05:29:26.657Z,14.27
2022-12-15T05:31:54.692Z,13.77
2022-12-15T05:34:23.021Z,9.77
2022-12-15T05:36:50.542Z,11.93
2022-12-15T05:39:17.082Z,14.45
2022-12-15T05:41:43.613Z,14.55
2022-12-15T05:44:10.319Z,13.67
2022-12-15T05:46:37.235Z,10.43
2022-12-15T05:49:07.922Z,13.27
2022-12-15T05:51:38.415Z,11.38
2022-12-15T05:54:05.139Z,14.20
2022-12-15T05:56:31.594Z,9.87
2022-12-15T05:58:57.998Z,11.65
2022-12-15T06:01:25.365Z,12.60
2022-12-15T06:03:52.334Z,9.98
2022-12-15T06:06:19.739Z,15.43
2022-12-15T06:08:46.266Z,14.43
2022-12-15T06:11:18.407Z,16.05
2022-12-15T06:13:44.896Z,10.43
2022-12-15T06:16:16.257Z,12.88
2022-12-15T06:18:50.219Z,10.35
2022-12-15T06:21:19.423Z,12.07
2022-12-15T06:23:46.740Z,14.35
2022-12-15T06:26:17.272Z,15.35
2022-12-15T06:28:43.967Z,10.38
2022-12-15T06:31:12.686Z,12.52
2022-12-15T06:33:39.272Z,10.80
2022-12-15T06:36:08.999Z,15.70
2022-12-15T06:38:36.313Z,11.65
2022-12-15T06:41:04.739Z,14.98
2022-12-15T06:43:33.260Z,16.55
2022-12-15T06:46:01.148Z,10.90
2022-12-15T06:48:27.839Z,12.52
2022-12-15T06:50:54.600Z,13.07
2022-12-15T06:53:24.050Z,12.60
2022-12-15T06:55:50.990Z,11.35
2022-12-15T06:58:18.254Z,10.73
2022-12-15T07:00:46.272Z,13.07
2022-12-15T07:03:16.201Z,10.40
2022-12-15T07:05:44.963Z,14.55
2022-12-15T07:08:12.839Z,14.75
2022-12-15T07:10:44.026Z,9.80
2022-12-15T07:13:11.932Z,13.02
2022-12-15T07:15:38.905Z,14.32
2022-12-15T07:18:05.984Z,14.68
2022-12-15T07:20:33.360Z,11.32
2022-12-15T07:23:00.623Z,11.23
2022-12-15T07:25:26.957Z,10.80
2022-12-15T07:27:53.355Z,10.25
2022-12-15T07:30:19.783Z,12.70
2022-12-15T07:32:46.604Z,12.38
2022-12-15T07:35:16.966Z,14.90
2022-12-15T07:37:43.511Z,10.77
2022-12-15T07:40:10.136Z,20.65
2022-12-15T07:42:36.519Z,17.70
2022-12-15T07:45:05.177Z,14.45
2022-12-15T07:47:32.493Z,10.03
2022-12-15T07:49:58.963Z,11.55
2022-12-15T07:52:26.137Z,10.75
2022-12-15T07:54:52.504Z,10.93
2022-12-15T07:57:18.926Z,13.70
2022-12-15T07:59:45.404Z,11.77
2022-12-15T08:02:13.169Z,10.57
2022-12-15T08:04:40.476Z,10.35
2022-12-15T08:07:07.991Z,17.92
2022-12-15T08:09:34.607Z,14.70
2022-12-15T08:12:01.044Z,13.30
2022-12-15T08:14:29.173Z,19.85
2022-12-15T08:16:55.693Z,12.88
2022-12-15T08:19:22.158Z,13.55
2022-12-15T08:21:48.740Z,13.30
2022-12-15T08:24:15.730Z,12.53
2022-12-15T08:26:43.856Z,15.27
2022-12-15T08:31:59.316Z,18.15
2022-12-15T08:34:25.808Z,15.02
2022-12-15T08:36:52.198Z,14.97
2022-12-15T08:39:18.642Z,14.77
2022-12-15T08:41:45.237Z,15.68
2022-12-15T08:44:11.867Z,20.77
2022-12-15T08:46:38.395Z,15.57
2022-12-15T08:49:04.780Z,14.23
2022-12-15T08:51:32.796Z,18.50
2022-12-15T08:54:00.543Z,14.10
2022-12-15T08:56:28.666Z,17.77
2022-12-15T08:58:57.726Z,20.35
2022-12-15T09:01:26.480Z,18.50
2022-12-15T09:03:54.834Z,16.13
2022-12-15T09:06:28.319Z,17.17
2022-12-15T09:08:56.625Z,19.20
2022-12-15T09:11:24.297Z,21.88
2022-12-15T09:13:51.115Z,22.00
2022-12-15T09:16:19.829Z,19.10
2022-12-15T09:18:48.914Z,21.15
2022-12-15T09:21:16.756Z,21.88
2022-12-15T09:23:43.366Z,21.88
2022-12-15T09:26:12.434Z,20.53
2022-12-15T09:28:39.198Z,26.08
2022-12-15T09:31:13.736Z,23.80
2022-12-15T09:33:42.744Z,16.65
2022-12-15T09:36:11.115Z,21.80
2022-12-15T09:38:38.226Z,21.90
2022-12-15T09:41:13.569Z,23.10
2022-12-15T09:43:48.264Z,21.00
2022-12-15T09:46:50.197Z,20.60
2022-12-15T09:49:48.213Z,17.48
2022-12-15T09:52:22.667Z,19.60
2022-12-15T09:54:49.349Z,20.83
2022-12-15T09:57:40.273Z,22.25
2022-12-15T10:00:11.232Z,19.73
2022-12-15T10:02:52.414Z,21.52
2022-12-15T10:06:07.198Z,22.60
2022-12-15T10:08:30.416Z,26.00
2022-12-15T10:11:23.199Z,19.65
2022-12-15T10:14:11.265Z,22.00
2022-12-15T10:17:13.129Z,24.35
2022-12-15T10:19:45.426Z,21.07
2022-12-15T10:22:22.875Z,22.25
2022-12-15T10:28:13.099Z,21.85
2022-12-15T10:31:00.597Z,19.52
2022-12-15T10:33:37.572Z,18.00
2022-12-15T10:36:12.369Z,26.50
2022-12-15T10:38:42.442Z,20.75
2022-12-15T10:41:11.992Z,22.35
2022-12-15T10:43:47.033Z,22.15
2022-12-15T10:46:22.333Z,20.07
2022-12-15T10:48:51.913Z,19.67
2022-12-15T10:51:20.068Z,19.10
2022-12-15T10:53:55.288Z,22.02
2022-12-15T10:56:33.618Z,18.55
2022-12-15T10:59:21.159Z,23.33
2022-12-15T11:01:47.658Z,19.55
2022-12-15T11:04:32.414Z,19.48
2022-12-15T11:07:01.296Z,19.95
2022-12-15T11:09:38.946Z,17.02
2022-12-15T11:12:42.713Z,18.10
2022-12-15T11:15:32.138Z,18.65
2022-12-15T11:18:10.674Z,20.77
2022-12-15T11:20:45.130Z,19.55
2022-12-15T11:23:48.797Z,23.23
2022-12-15T11:26:46.920Z,15.77
2022-12-15T11:29:38.945Z,19.67
2022-12-15T11:32:07.528Z,18.70
2022-12-15T11:34:41.838Z,15.88
2022-12-15T11:37:17.281Z,22.38
2022-12-15T11:40:19.816Z,21.67
2022-12-15T11:43:18.440Z,17.23
2022-12-15T11:46:09.908Z,18.67
2022-12-15T11:48:50.361Z,18.33
2022-12-15T11:51:35.270Z,16.88
2022-12-15T11:54:11.972Z,19.23
2022-12-15T11:56:47.093Z,17.15
2022-12-15T11:59:35.949Z,17.20
2022-12-15T12:02:24.906Z,19.73
2022-12-15T12:05:16.066Z,20.70
2022-12-15T12:07:49.462Z,16.47
2022-12-15T12:10:31.093Z,22.63
2022-12-15T12:13:12.159Z,18.98
2022-12-15T12:15:47.475Z,19.85
2022-12-15T12:18:23.215Z,19.05
2022-12-15T12:20:54.909Z,19.63
2022-12-15T12:23:36.527Z,19.60
2022-12-15T12:26:25.883Z,19.65
2022-12-15T12:29:06.569Z,22.40
2022-12-15T12:31:51.930Z,18.40
2022-12-15T12:34:37.420Z,18.77
2022-12-15T12:37:19.798Z,17.52
2022-12-15T12:39:48.121Z,17.55
2022-12-15T12:42:22.970Z,21.42
2022-12-15T12:44:49.386Z,20.38
2022-12-15T12:47:41.264Z,16.83
2022-12-15T12:50:17.257Z,22.65
2022-12-15T12:53:03.596Z,21.30
2022-12-15T12:55:41.687Z,21.25
2022-12-15T12:58:34.804Z,21.80
2022-12-15T13:01:10.390Z,20.20
2022-12-15T13:03:42.022Z,22.83
2022-12-15T13:06:40.613Z,18.58
2022-12-15T13:09:22.024Z,23.92
2022-12-15T13:11:48.917Z,20.65
2022-12-15T13:17:27.700Z,21.27
2022-12-15T13:20:00.464Z,21.23
2022-12-15T13:22:26.778Z,25.77
2022-12-15T13:24:56.192Z,24.25
2022-12-15T13:27:23.792Z,20.23
2022-12-15T13:30:14.139Z,24.02
2022-12-15T13:32:43.510Z,24.05
2022-12-15T13:35:12.654Z,22.92
2022-12-15T13:37:51.251Z,25.95
2022-12-15T13:40:33.639Z,24.47
2022-12-15T13:43:06.028Z,25.42
2022-12-15T13:45:48.595Z,22.48
2022-12-15T13:48:29.201Z,20.38
2022-12-15T13:50:58.011Z,24.52
2022-12-15T13:53:28.934Z,27.30
2022-12-15T13:56:14.783Z,20.38
2022-12-15T13:58:44.565Z,22.33
2022-12-15T14:04:16.197Z,22.27
2022-12-15T14:06:50.870Z,25.87
2022-12-15T14:09:22.443Z,25.20
2022-12-15T14:11:54.304Z,24.42
2022-12-15T14:14:28.269Z,27.05
2022-12-15T14:16:58.832Z,25.02
2022-12-15T14:19:25.968Z,24.53
2022-12-15T14:21:55.548Z,25.15
2022-12-15T14:24:40.173Z,24.38
2022-12-15T14:27:30.471Z,20.17
2022-12-15T14:30:23.317Z,24.02
2022-12-15T14:33:08.249Z,26.60
2022-12-15T14:35:44.633Z,24.25
2022-12-15T14:38:20.922Z,24.70
2022-12-15T14:40:51.104Z,26.02
2022-12-15T14:43:24.929Z,20.73
2022-12-15T14:45:56.288Z,26.50
2022-12-15T14:48:41.830Z,28.92
2022-12-15T14:51:19.720Z,23.25
2022-12-15T14:53:53.048Z,27.25
2022-12-15T14:56:25.739Z,28.60
2022-12-15T14:59:04.211Z,24.57
2022-12-15T15:03:05.769Z,23.02
2022-12-15T15:03:06.148Z,28.52
2022-12-15T15:03:13.041Z,18.27
2022-12-15T15:04:36.992Z,26.55
2022-12-15T15:07:06.688Z,27.45
2022-12-15T15:09:40.578Z,24.83
2022-12-15T15:12:14.120Z,26.87
2022-12-15T15:14:44.550Z,25.55
2022-12-15T15:17:14.465Z,25.05
2022-12-15T15:19:49.002Z,27.65
2022-12-15T15:22:30.736Z,26.00
2022-12-15T15:24:57.122Z,26.33
2022-12-15T15:27:38.153Z,24.33
2022-12-15T15:30:20.569Z,32.17
2022-12-15T15:33:07.922Z,30.02
2022-12-15T15:35:34.462Z,27.08
2022-12-15T15:38:11.274Z,27.50
2022-12-15T15:40:37.763Z,25.95
2022-12-15T15:43:14.049Z,26.02
2022-12-15T15:45:41.902Z,29.50
2022-12-15T15:48:17.327Z,27.75
2022-12-15T15:50:44.589Z,30.07
2022-12-15T15:53:17.597Z,28.80
2022-12-15T15:55:44.781Z,33.53
2022-12-15T15:58:12.891Z,30.88
2022-12-15T16:00:40.234Z,33.38
2022-12-15T16:03:07.180Z,35.33
2022-12-15T16:05:33.938Z,35.40
2022-12-15T16:08:01.491Z,33.90
2022-12-15T16:10:28.311Z,36.85
2022-12-15T16:12:56.939Z,27.80
2022-12-15T16:15:26.236Z,25.37
2022-12-15T16:17:53.564Z,33.17
2022-12-15T16:20:22.506Z,28.77
2022-12-15T16:22:55.350Z,34.47
2022-12-15T16:25:31.736Z,35.35
2022-12-15T16:28:03.356Z,31.07
2022-12-15T16:30:30.064Z,30.02
2022-12-15T16:32:56.481Z,33.25
2022-12-15T16:35:26.387Z,36.65
2022-12-15T16:37:52.996Z,29.30
2022-12-15T16:40:23.499Z,29.27
2022-12-15T16:42:54.351Z,32.17
2022-12-15T16:45:23.292Z,37.63
2022-12-15T16:47:49.815Z,29.63
2022-12-15T16:50:38.185Z,30.63
2022-12-15T16:53:05.544Z,36.17
2022-12-15T16:55:39.811Z,37.70
2022-12-15T16:58:06.955Z,44.35
2022-12-15T17:00:35.204Z,37.70
2022-12-15T17:03:02.467Z,41.63
2022-12-15T17:05:31.906Z,40.30
2022-12-15T17:08:00.758Z,37.75
2022-12-15T17:10:30.138Z,37.42
2022-12-15T17:13:03.081Z,35.67
2022-12-15T17:15:29.457Z,31.98
2022-12-15T17:17:56.296Z,34.67
2022-12-15T17:20:30.097Z,35.40
2022-12-15T17:23:07.627Z,35.50
2022-12-15T17:28:30.994Z,34.38
2022-12-15T17:30:57.633Z,30.70
2022-12-15T17:33:25.699Z,33.05
2022-12-15T17:35:55.035Z,37.70
2022-12-15T17:38:22.672Z,34.03
2022-12-15T17:40:51.094Z,38.35
2022-12-15T17:43:23.799Z,39.77
2022-12-15T17:45:50.854Z,32.58
2022-12-15T17:48:17.874Z,30.95
2022-12-15T17:50:49.891Z,37.47
2022-12-15T17:53:18.580Z,33.65
2022-12-15T17:55:45.427Z,34.33
2022-12-15T17:58:20.947Z,36.08
2022-12-15T18:00:51.654Z,37.17
2022-12-15T18:03:19.558Z,36.80
2022-12-15T18:05:48.049Z,30.80
2022-12-15T18:08:22.585Z,31.97
2022-12-15T18:10:51.694Z,33.80
2022-12-15T18:13:26.844Z,30.70
2022-12-15T18:15:55.518Z,29.95
2022-12-15T18:18:24.833Z,31.50
2022-12-15T18:20:56.742Z,33.00
2022-12-15T18:23:25.076Z,35.63
2022-12-15T18:25:52.429Z,35.90
2022-12-15T18:28:21.972Z,32.25
2022-12-15T18:30:50.144Z,37.22
2022-12-15T18:33:16.844Z,40.63
2022-12-15T18:35:45.815Z,34.47
2022-12-15T18:38:23.868Z,35.60
2022-12-15T18:40:57.095Z,31.92
2022-12-15T18:43:34.698Z,36.40
2022-12-15T18:46:01.537Z,35.57
2022-12-15T18:48:35.034Z,32.10
2022-12-15T18:51:03.212Z,32.97
2022-12-15T18:53:34.042Z,36.42
2022-12-15T18:56:03.266Z,34.53
2022-12-15T18:58:32.388Z,34.07
2022-12-15T19:01:00.971Z,30.70
2022-12-15T19:03:28.346Z,39.47
2022-12-15T19:06:25.280Z,32.67
2022-12-15T19:08:52.478Z,35.63
2022-12-15T19:11:32.664Z,34.97
2022-12-15T19:14:01.026Z,34.22
2022-12-15T19:16:48.116Z,39.80
2022-12-15T19:19:34.876Z,41.40
2022-12-15T19:22:20.260Z,34.15
2022-12-15T19:24:55.558Z,34.03
2022-12-15T19:27:26.583Z,37.33
2022-12-15T19:29:54.533Z,37.00
2022-12-15T19:32:21.325Z,36.33
2022-12-15T19:34:47.752Z,33.90
2022-12-15T19:37:22.874Z,37.70
2022-12-15T19:39:49.610Z,30.65
2022-12-15T19:42:23.706Z,34.33
2022-12-15T19:44:50.107Z,35.17
2022-12-15T19:47:16.514Z,31.95
2022-12-15T19:49:43.585Z,39.60
2022-12-15T19:52:14.615Z,35.65
2022-12-15T19:54:42.389Z,29.55
2022-12-15T19:57:13.521Z,36.13
2022-12-15T19:59:39.994Z,34.25
2022-12-15T20:02:07.094Z,36.43
2022-12-15T20:04:34.055Z,31.27
2022-12-15T20:07:03.831Z,34.47
2022-12-15T20:09:30.287Z,36.55
2022-12-15T20:11:57.217Z,29.77
2022-12-15T20:14:24.846Z,35.10
2022-12-15T20:16:51.380Z,38.40
2022-12-15T20:19:17.883Z,35.08
2022-12-15T20:21:44.483Z,36.08
2022-12-15T20:24:17.464Z,36.15
2022-12-15T20:26:45.242Z,34.33
2022-12-15T20:29:24.661Z,36.30
2022-12-15T20:31:52.404Z,35.17
2022-12-15T20:34:18.945Z,31.83
2022-12-15T20:36:47.324Z,35.53
2022-12-15T20:39:33.968Z,39.37
2022-12-15T20:42:00.414Z,33.95
2022-12-15T20:44:26.976Z,31.90
2022-12-15T20:46:53.538Z,31.80
2022-12-15T20:49:21.625Z,27.40
2022-12-15T20:51:48.653Z,36.10
2022-12-15T20:54:17.482Z,33.20
2022-12-15T20:56:45.094Z,38.00
2022-12-15T20:59:11.514Z,35.90
2022-12-15T21:01:41.933Z,38.95
2022-12-15T21:04:29.279Z,37.33
2022-12-15T21:06:56.744Z,33.60
2022-12-15T21:09:24.036Z,32.17
2022-12-15T21:11:51.870Z,36.28
2022-12-15T21:14:22.293Z,33.05
2022-12-15T21:16:49.209Z,33.17
2022-12-15T21:19:20.963Z,33.60
2022-12-15T21:21:51.771Z,36.92
2022-12-15T21:24:24.550Z,33.40
2022-12-15T21:26:51.989Z,31.85
2022-12-15T21:29:21.416Z,38.17
2022-12-15T21:31:48.387Z,33.67
2022-12-15T21:34:15.257Z,28.95
2022-12-15T21:36:44.212Z,37.40
2022-12-15T21:39:18.515Z,37.55
2022-12-15T21:41:44.994Z,33.10
2022-12-15T21:44:13.750Z,35.13
2022-12-15T21:46:40.831Z,37.45
2022-12-15T21:49:20.401Z,35.22
2022-12-15T21:51:56.387Z,38.35
2022-12-15T21:54:31.327Z,29.17
2022-12-15T21:56:58.978Z,35.38
2022-12-15T21:59:28.935Z,38.65
2022-12-15T22:01:55.974Z,32.08
2022-12-15T22:04:31.349Z,32.55
2022-12-15T22:06:57.748Z,33.90
2022-12-15T22:09:24.622Z,32.33
2022-12-15T22:11:53.745Z,33.58
2022-12-15T22:14:33.589Z,34.30
2022-12-15T22:17:01.882Z,29.73
2022-12-15T22:19:28.683Z,29.20
2022-12-15T22:21:55.259Z,33.97
2022-12-15T22:24:22.036Z,32.17
2022-12-15T22:26:48.667Z,31.27
2022-12-15T22:29:18.783Z,36.75
2022-12-15T22:31:45.200Z,33.63
2022-12-15T22:34:20.730Z,37.05
2022-12-15T22:36:48.134Z,35.42
2022-12-15T22:39:15.095Z,36.28
2022-12-15T22:41:44.765Z,32.17
2022-12-15T22:44:19.307Z,30.60
2022-12-15T22:46:46.904Z,37.28
2022-12-15T22:49:17.483Z,28.55
2022-12-15T22:51:44.764Z,32.28
2022-12-15T22:54:17.928Z,34.45
2022-12-15T22:56:45.324Z,34.13
2022-12-15T22:59:19.500Z,35.08
2022-12-15T23:01:45.969Z,33.55
2022-12-15T23:04:12.800Z,35.90
2022-12-15T23:06:40.418Z,34.78
2022-12-15T23:09:06.969Z,30.63
2022-12-15T23:11:39.704Z,30.67
2022-12-15T23:14:14.458Z,36.88
2022-12-15T23:16:42.087Z,33.08
2022-12-15T23:19:09.526Z,36.25
2022-12-15T23:21:36.560Z,35.67
2022-12-15T23:24:03.086Z,33.05
2022-12-15T23:26:29.465Z,38.47
2022-12-15T23:28:56.020Z,33.58
2022-12-15T23:31:22.690Z,37.47
2022-12-15T23:33:50.025Z,28.67
2022-12-15T23:36:18.694Z,30.40
2022-12-15T23:38:45.178Z,32.40
2022-12-15T23:41:16.030Z,34.65
2022-12-15T23:43:42.475Z,30.13
2022-12-15T23:46:09.572Z,34.80
2022-12-15T23:48:38.357Z,35.85
2022-12-15T23:51:05.920Z,38.83
2022-12-15T23:53:33.200Z,30.88
2022-12-15T23:56:14.685Z,35.25
2022-12-15T23:58:42.597Z,31.63
